<<    Juni 2014    >>
Datum    Temp.       Tempmin      Tempmax    Taup.       Taup.min      Taup.max    Feuchte    Feuchtemin    Feuchtemax    Druck    Druckmin    Druckmax    Regen    Wind    Benmax  
  01.06.2014  15,9    10,7    05:03    21,1    15:37  4,8    1,8    21:00    8,1    09:39  50,2    30    18:10    75    05:46  1021,5    1019    18:34    1023    00:00  0,0  2,7  13,0  
  02.06.2014  16,5    10,2    05:52    23,1    15:30  5,2    1,3    18:09    9,0    08:40  51,3    25    17:21    80    06:23  1019,4    1017    16:34    1022    03:34  0,0  1,6  10,1  
  03.06.2014  17,3    10,1    05:32    24,8    15:56  6,9    2,8    16:08    10,0    08:01  54,3    25    15:34    83    06:41  1015,0    1012    16:48    1018    00:00  0,0  1,4  12,6  
  04.06.2014  17,0    12,5    04:37    21,3    11:53  10,2    8,3    12:26    12,4    23:27  65,3    45    12:07    86    23:27  1007,5    1003    19:03    1013    01:04  0,9  2,4  21,2  
  05.06.2014  14,4    9,2    05:45    18,8    16:57  5,9    2,9    17:34    10,7    00:00  59,8    36    14:32    88    00:49  1013,0    1007    00:00    1018    23:33  0,9  3,4  20,5  
  06.06.2014  18,6    8,9    05:55    27,9    16:17  5,3    2,1    14:12    8,5    08:34  48,5    20    16:00    84    06:22  1016,3    1013    17:48    1018    00:00  0,0  1,9  13,0  
  07.06.2014  23,5    14,3    05:20    32,5    15:18  10,4    7,2    14:59    15,7    21:43  47,1    21    14:58    72    05:42  1013,7    1012    16:18    1015    02:03  0,0  1,6  30,2  
  08.06.2014  24,1    18,4    05:41    30,1    17:13  14,7    12,1    14:05    17,7    09:27  58,2    36    16:20    81    07:37  1015,6    1013    00:02    1018    10:49  0,0  2,7  14,0  
  09.06.2014  24,7    18,0    21:43    32,4    17:14  16,6    11,5    20:43    20,8    14:10  63,6    34    17:06    98    23:59  1014,8    1010    19:17    1017    02:47  14,1  2,9  27,4  
  10.06.2014  23,2    16,7    04:33    31,7    14:30  16,3    11,6    14:58    19,0    09:23  69,9    30    14:58    98    00:00  1016,3    1014    04:46    1019    23:59  0,0  3,2  18,0  
  11.06.2014  20,3    15,7    09:13    24,1    17:38  12,5    6,3    15:18    18,4    04:13  65,8    34    15:12    98    04:01  1023,3    1019    00:00    1027    23:46  12,3  3,8  17,6  
  12.06.2014  19,5    13,3    05:26    25,2    17:11  7,9    3,8    18:14    12,4    08:36  50,8    26    17:11    80    06:49  1026,1    1024    17:17    1028    05:02  0,0  3,2  16,6  
  13.06.2014  18,9    13,0    05:18    24,6    15:51  8,9    5,6    15:14    13,0    08:26  55,2    31    14:44    83    06:36  1022,1    1019    19:00    1024    00:00  0,0  2,7  16,6  
  14.06.2014  17,6    15,0    05:54    20,5    17:11  6,9    4,1    15:24    10,5    01:55  50,6    36    15:13    71    04:34  1020,8    1019    00:00    1022    08:45  0,0  3,7  15,8  
  15.06.2014  18,0    13,5    05:04    22,8    15:09  7,4    3,4    16:21    10,7    06:16  52,9    29    16:21    81    06:01  1022,7    1021    00:45    1025    10:45  0,0  3,8  17,3  
  16.06.2014  15,8    11,6    06:03    18,8    13:23  8,4    5,4    11:11    10,8    18:55  62,6    45    13:14    82    06:30  1022,5    1020    19:15    1024    04:30  0,0  3,6  14,8  
  17.06.2014  16,6    11,1    05:40    21,4    17:04  9,9    6,9    04:47    12,2    15:50  65,3    50    17:17    80    06:22  1021,5    1019    17:45    1023    02:00  0,0  3,0  15,1  
  18.06.2014  18,1    13,7    05:41    23,0    15:08  8,8    5,6    13:56    11,8    00:00  56,9    34    13:56    81    06:06  1021,7    1019    20:13    1023    07:29  0,0  3,9  16,2  
  19.06.2014  15,7    13,3    05:43    19,4    15:03  9,6    6,7    11:29    11,4    22:06  68,0    46    15:07    84    06:26  1020,5    1019    18:45    1022    02:46  0,0  2,9  12,6  
  20.06.2014  15,8    12,6    03:04    20,5    14:33  7,9    3,1    16:39    12,1    08:44  62,5    35    14:44    87    04:21  1019,6    1019    00:29    1021    12:15  0,0  4,4  19,8  
  21.06.2014  16,9    12,2    05:19    23,0    17:14  7,4    4,1    18:13    9,9    08:30  56,2    32    17:00    80    06:25  1019,3    1018    23:59    1021    03:14  0,0  2,5  13,7  
  22.06.2014  17,8    12,9    05:42    23,5    16:16  7,0    3,2    16:34    12,3    08:20  52,9    28    16:20    84    06:26  1020,2    1017    00:06    1023    23:59  0,0  2,9  17,6  
  23.06.2014  17,4    10,5    05:24    22,8    15:40  5,5    3,2    12:16    8,8    07:45  48,4    31    15:42    77    06:16  1022,4    1019    19:14    1025    04:44  0,0  3,1  28,1  
  24.06.2014  17,5    11,7    05:11    23,0    15:24  8,6    6,3    00:00    11,2    14:28  58,0    36    15:37    81    06:21  1017,8    1014    18:47    1020    00:00  0,0  2,3  17,3  
  25.06.2014  16,5    12,3    06:06    21,4    17:10  5,5    2,0    18:46    10,4    02:25  51,4    28    17:10    78    01:54  1015,8    1015    00:00    1017    08:28  0,0  3,8  16,6  
  26.06.2014  17,8    11,2    04:36    24,4    15:47  4,3    0,1    20:56    7,9    08:11  45,3    22    16:38    74    05:10  1015,8    1013    18:58    1018    00:12  0,0  1,8  11,2  
  27.06.2014  18,7    14,5    01:19    26,4    15:27  8,1    4,3    00:02    14,8    18:52  53,4    25    15:33    93    23:15  1014,6    1013    16:28    1016    01:13  5,8  2,1  15,8  
  28.06.2014  16,2    13,8    04:48    20,1    12:12  14,6    13,3    04:48    16,4    16:45  91,0    68    12:32    98    04:55  1011,0    1007    23:27    1014    00:00  7,6  1,0  7,9  
  29.06.2014  15,8    14,4    06:54    20,8    14:29  13,5    10,3    16:08    16,0    12:44  86,7    60    14:52    98    00:00  1008,7    1005    04:58    1012    23:59  3,0  2,2  13,0  
  30.06.2014  15,7    12,0    23:57    20,3    15:04  10,4    4,4    16:20    13,6    19:36  73,2    38    16:46    94    06:00  1015,3    1012    00:00    1019    23:26  1,8  2,7  16,2  
 
  Gesamt  18,1  8,9            32,5            9,0  0,1            20,8            59,2  20            98            1017,8  1003            1028            46,4  2,8  30,2  
 
  Mittelwert  18,1  12,9            23,7            9,0  5,5            12,6            59,2  34,5            84,3            1017,8  1015,0            1020,2            1,5  2,8  16,7  
  Minimum  14,4  8,9            18,8            4,3  0,1            7,9            45,3  20,0            71,0            1007,5  1003,0            1012,0            0,0  1,0  7,9  
  Maximum  24,7  18,4            32,5            16,6  13,3            20,8            91,0  68,0            98,0            1026,1  1024,0            1028,0            14,1  4,4  30,2  

  Heie Tage    Tmax >=30C     4  
  Sommertage    Tmax >=25C     7  
  Warme Tage    Tmax >=20C     27  
  Kalte Tage    Tmax  <10C     0  
  Frosttage    Tmin  <0C     0  
  Eistage    Tmax  <0C     0  
  Regentage > 0 mm    8  
  Regentage > 2 mm    5  
  Regentage > 10 mm    2  
  Regentage > 20 mm    0